createdAt,value
2022-12-17T00:02:41.150Z,6.30
2022-12-17T00:05:27.350Z,6.07
2022-12-17T00:08:19.900Z,5.07
2022-12-17T00:11:05.337Z,5.45
2022-12-17T00:13:50.612Z,5.90
2022-12-17T00:16:37.037Z,5.10
2022-12-17T00:19:24.632Z,5.60
2022-12-17T00:22:10.147Z,5.20
2022-12-17T00:24:56.349Z,5.20
2022-12-17T00:27:42.563Z,4.78
2022-12-17T00:30:31.325Z,6.40
2022-12-17T00:33:16.670Z,5.07
2022-12-17T00:36:02.224Z,4.78
2022-12-17T00:38:47.856Z,5.15
2022-12-17T00:41:33.140Z,4.03
2022-12-17T00:44:19.023Z,3.55
2022-12-17T00:47:04.710Z,3.60
2022-12-17T00:49:50.068Z,3.70
2022-12-17T00:52:35.126Z,3.72
2022-12-17T00:55:20.422Z,3.20
2022-12-17T00:58:05.914Z,3.03
2022-12-17T01:00:51.471Z,3.50
2022-12-17T01:03:50.649Z,3.17
2022-12-17T01:06:36.052Z,3.38
2022-12-17T01:09:21.086Z,3.25
2022-12-17T01:12:08.126Z,4.15
2022-12-17T01:14:54.881Z,3.55
2022-12-17T01:17:40.433Z,4.10
2022-12-17T01:20:26.224Z,3.35
2022-12-17T01:23:11.877Z,2.80
2022-12-17T01:25:57.330Z,4.20
2022-12-17T01:28:43.482Z,3.50
2022-12-17T01:31:34.736Z,3.50
2022-12-17T01:34:21.293Z,3.13
2022-12-17T01:37:07.243Z,3.42
2022-12-17T01:39:52.632Z,3.00
2022-12-17T01:42:37.931Z,3.50
2022-12-17T01:45:25.727Z,2.90
2022-12-17T01:48:16.035Z,2.60
2022-12-17T01:51:04.975Z,3.25
2022-12-17T01:53:55.373Z,2.75
2022-12-17T01:56:45.064Z,3.10
2022-12-17T01:59:32.936Z,3.08
2022-12-17T02:02:18.668Z,3.08
2022-12-17T02:05:04.236Z,2.78
2022-12-17T02:08:00.713Z,3.13
2022-12-17T02:11:10.659Z,3.30
2022-12-17T02:13:59.823Z,2.83
2022-12-17T02:16:55.262Z,2.63
2022-12-17T02:19:58.407Z,2.92
2022-12-17T02:22:54.123Z,2.92
2022-12-17T02:26:19.236Z,2.50
2022-12-17T02:29:07.821Z,3.13
2022-12-17T02:31:56.474Z,2.60
2022-12-17T02:34:56.719Z,2.42
2022-12-17T02:37:42.057Z,2.80
2022-12-17T02:40:27.886Z,3.10
2022-12-17T02:43:13.388Z,3.17
2022-12-17T02:45:58.654Z,2.92
2022-12-17T02:48:44.474Z,2.55
2022-12-17T02:51:30.403Z,2.80
2022-12-17T02:54:21.932Z,2.30
2022-12-17T02:57:07.938Z,2.70
2022-12-17T02:59:53.485Z,2.90
2022-12-17T03:02:38.679Z,3.10
2022-12-17T03:05:44.595Z,3.38
2022-12-17T03:08:35.339Z,3.00
2022-12-17T03:11:20.811Z,3.15
2022-12-17T03:14:06.165Z,3.20
2022-12-17T03:16:51.719Z,3.15
2022-12-17T03:19:36.787Z,3.30
2022-12-17T03:22:22.157Z,3.03
2022-12-17T03:25:07.636Z,3.28
2022-12-17T03:27:52.699Z,3.28
2022-12-17T03:30:39.185Z,3.22
2022-12-17T03:33:28.024Z,3.10
2022-12-17T03:36:13.511Z,3.00
2022-12-17T03:38:59.643Z,3.30
2022-12-17T03:41:45.027Z,2.47
2022-12-17T03:44:30.162Z,3.13
2022-12-17T03:47:15.729Z,3.22
2022-12-17T03:50:01.079Z,2.75
2022-12-17T03:52:46.565Z,2.90
2022-12-17T03:55:31.665Z,3.05
2022-12-17T03:58:17.087Z,3.13
2022-12-17T04:01:02.908Z,3.80
2022-12-17T04:03:48.404Z,3.72
2022-12-17T04:06:33.688Z,3.05
2022-12-17T04:09:19.254Z,3.05
2022-12-17T04:12:04.612Z,3.45
2022-12-17T04:14:49.864Z,3.20
2022-12-17T04:17:34.873Z,3.30
2022-12-17T04:20:20.412Z,3.10
2022-12-17T04:23:05.710Z,2.40
2022-12-17T04:25:51.118Z,3.03
2022-12-17T04:28:36.160Z,2.88
2022-12-17T04:31:21.464Z,2.90
2022-12-17T04:34:07.023Z,2.88
2022-12-17T04:36:52.508Z,2.70
2022-12-17T04:39:37.729Z,2.65
2022-12-17T04:42:23.216Z,3.03
2022-12-17T04:45:10.255Z,2.95
2022-12-17T04:47:55.670Z,3.40
2022-12-17T04:50:41.365Z,2.70
2022-12-17T04:53:28.468Z,2.78
2022-12-17T04:56:14.302Z,2.50
2022-12-17T04:59:16.223Z,3.22
2022-12-17T05:02:01.503Z,2.63
2022-12-17T05:04:46.771Z,2.53
2022-12-17T05:07:32.113Z,2.83
2022-12-17T05:10:17.459Z,2.85
2022-12-17T05:13:03.084Z,2.72
2022-12-17T05:15:53.090Z,3.47
2022-12-17T05:18:39.314Z,2.97
2022-12-17T05:21:24.984Z,2.58
2022-12-17T05:24:11.641Z,3.45
2022-12-17T05:26:57.121Z,3.35
2022-12-17T05:29:43.089Z,3.28
2022-12-17T05:32:28.804Z,3.60
2022-12-17T05:35:14.142Z,3.90
2022-12-17T05:37:59.668Z,3.40
2022-12-17T05:40:44.998Z,3.35
2022-12-17T05:43:31.783Z,3.10
2022-12-17T05:46:17.253Z,2.72
2022-12-17T05:49:02.534Z,3.20
2022-12-17T05:51:47.986Z,3.30
2022-12-17T05:54:32.970Z,4.20
2022-12-17T05:57:38.314Z,3.50
2022-12-17T06:00:26.540Z,4.72
2022-12-17T06:03:23.223Z,3.42
2022-12-17T06:06:13.806Z,3.83
2022-12-17T06:08:59.750Z,3.22
2022-12-17T06:11:44.992Z,4.05
2022-12-17T06:14:30.673Z,3.97
2022-12-17T06:17:16.139Z,4.07
2022-12-17T06:20:01.562Z,3.83
2022-12-17T06:22:46.852Z,3.72
2022-12-17T06:25:32.541Z,3.28
2022-12-17T06:28:19.704Z,4.25
2022-12-17T06:31:12.863Z,6.97
2022-12-17T06:33:59.213Z,6.88
2022-12-17T06:36:45.195Z,5.22
2022-12-17T06:39:30.262Z,4.90
2022-12-17T06:42:15.706Z,6.75
2022-12-17T06:45:00.907Z,6.70
2022-12-17T06:47:46.209Z,5.93
2022-12-17T06:50:31.952Z,6.93
2022-12-17T06:53:22.297Z,6.88
2022-12-17T06:56:07.834Z,6.90
2022-12-17T06:58:54.511Z,6.97
2022-12-17T07:01:40.592Z,7.85
2022-12-17T07:04:26.323Z,6.70
2022-12-17T07:07:12.339Z,7.15
2022-12-17T07:09:57.708Z,6.20
2022-12-17T07:12:43.027Z,6.57
2022-12-17T07:15:28.637Z,7.68
2022-12-17T07:18:18.998Z,7.00
2022-12-17T07:21:05.592Z,27.63
2022-12-17T07:23:51.292Z,12.50
2022-12-17T07:26:47.696Z,16.55
2022-12-17T07:30:05.714Z,23.25
2022-12-17T07:32:54.974Z,14.73
2022-12-17T07:39:39.307Z,7.50
2022-12-17T07:42:24.307Z,6.57
2022-12-17T07:45:09.528Z,7.30
2022-12-17T07:47:55.041Z,7.03
2022-12-17T07:50:40.017Z,8.30
2022-12-17T07:53:25.192Z,9.30
2022-12-17T07:56:10.816Z,9.20
2022-12-17T07:58:56.495Z,10.68
2022-12-17T08:01:41.755Z,11.15
2022-12-17T08:04:27.012Z,10.40
2022-12-17T08:07:14.303Z,8.32
2022-12-17T08:09:59.793Z,9.82
2022-12-17T08:12:45.240Z,9.00
2022-12-17T08:15:30.891Z,8.45
2022-12-17T08:18:26.049Z,10.18
2022-12-17T08:21:14.974Z,14.77
2022-12-17T08:24:00.335Z,14.35
2022-12-17T08:26:48.211Z,13.52
2022-12-17T08:29:34.290Z,10.88
2022-12-17T08:32:21.120Z,10.00
2022-12-17T08:35:06.571Z,9.60
2022-12-17T08:37:51.836Z,8.93
2022-12-17T08:40:37.177Z,10.45
2022-12-17T08:43:22.880Z,18.55
2022-12-17T08:46:09.880Z,19.90
2022-12-17T08:49:06.696Z,15.65
2022-12-17T08:51:51.692Z,16.10
2022-12-17T08:54:37.427Z,23.27
2022-12-17T08:57:31.493Z,16.90
2022-12-17T09:00:20.446Z,17.08
2022-12-17T09:03:05.793Z,13.88
2022-12-17T09:05:52.434Z,14.40
2022-12-17T09:08:37.675Z,14.23
2022-12-17T09:11:24.965Z,15.13
2022-12-17T09:14:10.376Z,17.83
2022-12-17T09:17:15.587Z,15.18
2022-12-17T09:20:01.249Z,17.75
2022-12-17T09:22:46.836Z,17.10
2022-12-17T09:25:31.944Z,16.88
2022-12-17T09:28:21.589Z,13.15
2022-12-17T09:31:07.021Z,9.15
2022-12-17T09:33:53.291Z,7.95
2022-12-17T09:36:48.012Z,7.13
2022-12-17T09:39:36.572Z,7.07
2022-12-17T09:42:36.393Z,7.82
2022-12-17T09:46:00.866Z,7.45
2022-12-17T09:48:49.748Z,6.43
2022-12-17T09:51:44.219Z,6.40
2022-12-17T09:54:38.685Z,6.05
2022-12-17T09:57:29.322Z,5.50
2022-12-17T10:00:14.815Z,5.90
2022-12-17T10:03:02.602Z,6.65
2022-12-17T10:05:50.527Z,7.63
2022-12-17T10:08:39.591Z,7.10
2022-12-17T10:11:47.784Z,6.72
2022-12-17T10:14:37.944Z,6.10
2022-12-17T10:17:24.917Z,6.95
2022-12-17T10:20:13.230Z,6.45
2022-12-17T10:23:07.852Z,7.40
2022-12-17T10:25:54.391Z,7.25
2022-12-17T10:28:42.891Z,7.38
2022-12-17T10:31:30.689Z,8.20
2022-12-17T10:34:16.845Z,9.55
2022-12-17T10:37:09.472Z,9.82
2022-12-17T10:39:55.298Z,9.07
2022-12-17T10:42:49.551Z,9.93
2022-12-17T10:45:44.007Z,12.23
2022-12-17T10:48:44.639Z,10.48
2022-12-17T10:51:43.808Z,10.13
2022-12-17T10:54:49.399Z,9.57
2022-12-17T10:57:43.030Z,10.30
2022-12-17T11:00:49.358Z,10.65
2022-12-17T11:03:57.804Z,10.25
2022-12-17T11:06:49.849Z,7.32
2022-12-17T11:09:46.217Z,6.00
2022-12-17T11:12:34.064Z,7.40
2022-12-17T11:15:30.982Z,6.43
2022-12-17T11:18:17.688Z,5.40
2022-12-17T11:21:31.342Z,5.57
2022-12-17T11:24:22.701Z,5.78
2022-12-17T11:27:12.109Z,4.40
2022-12-17T11:29:57.685Z,6.05
2022-12-17T11:33:13.710Z,5.43
2022-12-17T11:36:13.605Z,5.78
2022-12-17T11:39:42.656Z,8.18
2022-12-17T11:42:41.458Z,6.60
2022-12-17T11:45:49.906Z,7.13
2022-12-17T11:49:00.189Z,7.68
2022-12-17T11:51:55.479Z,7.45
2022-12-17T11:54:54.300Z,8.38
2022-12-17T11:57:52.507Z,9.95
2022-12-17T12:00:39.543Z,9.57
2022-12-17T12:03:32.586Z,8.32
2022-12-17T12:06:19.968Z,8.45
2022-12-17T12:09:16.525Z,8.60
2022-12-17T12:12:12.383Z,9.30
2022-12-17T12:15:10.402Z,7.72
2022-12-17T12:18:09.014Z,6.43
2022-12-17T12:21:13.358Z,7.72
2022-12-17T12:24:09.455Z,7.38
2022-12-17T12:27:40.732Z,7.53
2022-12-17T12:30:38.764Z,7.30
2022-12-17T12:33:40.120Z,7.20
2022-12-17T12:36:29.854Z,6.40
2022-12-17T12:39:16.479Z,6.05
2022-12-17T12:42:20.073Z,5.55
2022-12-17T12:45:18.618Z,5.13
2022-12-17T12:48:24.079Z,5.25
2022-12-17T12:51:34.652Z,7.13
2022-12-17T12:54:58.737Z,6.80
2022-12-17T12:57:50.809Z,5.38
2022-12-17T13:01:19.887Z,5.57
2022-12-17T13:04:05.426Z,7.25
2022-12-17T13:06:38.040Z,7.00
2022-12-17T13:09:32.484Z,7.75
2022-12-17T13:12:04.521Z,8.43
2022-12-17T13:14:59.305Z,8.13
2022-12-17T13:17:35.137Z,7.68
2022-12-17T13:20:23.322Z,12.38
2022-12-17T13:22:53.426Z,12.00
2022-12-17T13:25:23.037Z,8.02
2022-12-17T13:27:50.541Z,7.38
2022-12-17T13:30:17.201Z,7.18
2022-12-17T13:33:02.707Z,6.05
2022-12-17T13:36:08.901Z,6.35
2022-12-17T13:38:43.376Z,5.50
2022-12-17T13:41:22.320Z,5.68
2022-12-17T13:43:53.998Z,6.72
2022-12-17T13:46:22.134Z,7.40
2022-12-17T13:49:01.877Z,5.72
2022-12-17T13:51:31.630Z,6.72
2022-12-17T13:54:03.861Z,7.10
2022-12-17T13:56:36.496Z,7.43
2022-12-17T13:59:09.085Z,7.32
2022-12-17T14:01:54.121Z,8.90
2022-12-17T14:04:28.961Z,10.27
2022-12-17T14:07:03.194Z,9.93
2022-12-17T14:09:40.444Z,8.93
2022-12-17T14:12:23.648Z,9.35
2022-12-17T14:14:59.948Z,9.05
2022-12-17T14:17:35.684Z,9.68
2022-12-17T14:20:17.593Z,8.05
2022-12-17T14:22:51.729Z,8.23
2022-12-17T14:25:18.636Z,7.97
2022-12-17T14:28:02.776Z,9.10
2022-12-17T14:31:17.139Z,7.80
2022-12-17T14:33:35.081Z,9.40
2022-12-17T14:36:09.684Z,10.38
2022-12-17T14:38:39.012Z,7.80
2022-12-17T14:41:32.222Z,6.38
2022-12-17T14:44:00.558Z,6.65
2022-12-17T14:46:31.964Z,12.95
2022-12-17T14:49:03.689Z,9.82
2022-12-17T14:51:37.505Z,7.30
2022-12-17T14:54:07.795Z,7.35
2022-12-17T14:56:34.559Z,7.95
2022-12-17T14:59:02.573Z,7.43
2022-12-17T15:01:29.538Z,7.72
2022-12-17T15:03:57.243Z,8.52
2022-12-17T15:06:24.147Z,8.82
2022-12-17T15:08:53.196Z,8.85
2022-12-17T15:11:22.043Z,9.05
2022-12-17T15:13:54.434Z,9.48
2022-12-17T15:16:23.448Z,8.85
2022-12-17T15:18:50.454Z,10.45
2022-12-17T15:21:18.998Z,10.18
2022-12-17T15:23:47.020Z,9.45
2022-12-17T15:26:15.275Z,8.02
2022-12-17T15:28:42.824Z,8.98
2022-12-17T15:31:12.403Z,11.15
2022-12-17T15:33:39.911Z,11.10
2022-12-17T15:36:07.604Z,9.82
2022-12-17T15:38:34.757Z,9.98
2022-12-17T15:41:23.373Z,9.77
2022-12-17T15:43:50.069Z,9.00
2022-12-17T15:46:16.824Z,9.90
2022-12-17T15:48:49.921Z,16.42
2022-12-17T15:51:19.767Z,10.68
2022-12-17T15:53:48.026Z,20.33
2022-12-17T15:56:24.281Z,11.90
2022-12-17T15:58:51.389Z,11.20
2022-12-17T16:01:19.288Z,10.20
2022-12-17T16:03:46.195Z,10.45
2022-12-17T16:06:15.060Z,9.77
2022-12-17T16:08:41.997Z,10.38
2022-12-17T16:11:13.489Z,10.23
2022-12-17T16:13:40.754Z,11.48
2022-12-17T16:16:10.189Z,8.98
2022-12-17T16:18:50.959Z,9.65
2022-12-17T16:21:20.912Z,13.40
2022-12-17T16:23:50.836Z,11.68
2022-12-17T16:26:21.350Z,11.88
2022-12-17T16:28:51.073Z,13.30
2022-12-17T16:31:18.533Z,13.43
2022-12-17T16:33:48.124Z,14.52
2022-12-17T16:36:17.391Z,13.35
2022-12-17T16:38:52.310Z,10.90
2022-12-17T16:41:20.600Z,13.18
2022-12-17T16:43:48.144Z,13.00
2022-12-17T16:46:27.781Z,13.73
2022-12-17T16:48:55.683Z,11.20
2022-12-17T16:51:28.815Z,11.05
2022-12-17T16:53:57.691Z,12.88
2022-12-17T16:56:27.801Z,13.15
2022-12-17T16:58:55.789Z,12.45
2022-12-17T17:01:26.052Z,16.25
2022-12-17T17:03:54.495Z,13.48
2022-12-17T17:06:22.182Z,9.95
2022-12-17T17:08:49.255Z,9.65
2022-12-17T17:11:21.237Z,10.93
2022-12-17T17:13:54.109Z,10.65
2022-12-17T17:16:25.138Z,9.10
2022-12-17T17:18:53.247Z,9.52
2022-12-17T17:21:22.216Z,8.48
2022-12-17T17:24:01.395Z,8.80
2022-12-17T17:26:29.999Z,8.82
2022-12-17T17:28:56.864Z,8.88
2022-12-17T17:31:30.564Z,8.98
2022-12-17T17:34:13.191Z,10.55
2022-12-17T17:36:40.546Z,9.70
2022-12-17T17:39:07.520Z,9.68
2022-12-17T17:41:35.318Z,8.48
2022-12-17T17:44:04.855Z,7.00
2022-12-17T17:46:32.193Z,12.68
2022-12-17T17:49:00.501Z,11.15
2022-12-17T17:52:07.354Z,9.93
2022-12-17T17:54:17.027Z,9.88
2022-12-17T17:56:44.315Z,9.43
2022-12-17T17:59:14.053Z,8.98
2022-12-17T18:01:43.735Z,9.23
2022-12-17T18:04:17.148Z,9.13
2022-12-17T18:07:02.563Z,9.05
2022-12-17T18:09:32.072Z,10.18
2022-12-17T18:12:18.654Z,10.40
2022-12-17T18:15:11.941Z,10.73
2022-12-17T18:17:32.110Z,9.10
2022-12-17T18:19:58.719Z,9.57
2022-12-17T18:22:25.449Z,9.50
2022-12-17T18:24:53.748Z,9.07
2022-12-17T18:27:23.135Z,10.70
2022-12-17T18:29:49.888Z,10.90
2022-12-17T18:32:16.582Z,11.52
2022-12-17T18:34:43.333Z,12.00
2022-12-17T18:37:10.620Z,12.10
2022-12-17T18:39:38.452Z,11.43
2022-12-17T18:42:24.000Z,11.18
2022-12-17T18:44:50.681Z,13.70
2022-12-17T18:47:18.937Z,13.60
2022-12-17T18:49:45.710Z,14.88
2022-12-17T18:52:16.649Z,14.88
2022-12-17T18:54:45.405Z,15.80
2022-12-17T18:57:12.347Z,14.95
2022-12-17T18:59:40.872Z,14.75
2022-12-17T19:02:14.978Z,16.08
2022-12-17T19:04:42.300Z,20.23
2022-12-17T19:07:09.332Z,18.17
2022-12-17T19:09:36.518Z,19.15
2022-12-17T19:12:05.707Z,17.05
2022-12-17T19:14:33.672Z,17.70
2022-12-17T19:17:00.979Z,14.30
2022-12-17T19:19:27.827Z,13.95
2022-12-17T19:21:55.361Z,43.70
2022-12-17T19:24:22.993Z,18.25
2022-12-17T19:26:50.513Z,19.58
2022-12-17T19:29:19.427Z,17.70
2022-12-17T19:31:46.316Z,12.43
2022-12-17T19:34:14.920Z,10.02
2022-12-17T19:36:42.577Z,10.73
2022-12-17T19:39:12.661Z,8.93
2022-12-17T19:41:39.744Z,8.82
2022-12-17T19:44:10.751Z,7.68
2022-12-17T19:46:37.546Z,8.88
2022-12-17T19:49:05.471Z,9.50
2022-12-17T19:51:36.002Z,9.57
2022-12-17T19:54:08.388Z,8.60
2022-12-17T19:56:36.577Z,7.68
2022-12-17T19:59:08.346Z,6.45
2022-12-17T20:01:38.170Z,6.30
2022-12-17T20:04:05.993Z,6.43
2022-12-17T20:06:34.786Z,8.10
2022-12-17T20:09:04.707Z,8.43
2022-12-17T20:11:35.662Z,9.27
2022-12-17T20:14:13.288Z,8.30
2022-12-17T20:16:42.891Z,8.05
2022-12-17T20:19:16.282Z,8.85
2022-12-17T20:21:43.249Z,9.77
2022-12-17T20:24:11.442Z,9.18
2022-12-17T20:26:38.622Z,10.25
2022-12-17T20:29:06.285Z,10.80
2022-12-17T20:31:35.383Z,11.40
2022-12-17T20:34:07.352Z,11.65
2022-12-17T20:36:34.802Z,19.95
2022-12-17T20:39:01.854Z,38.03
2022-12-17T20:41:30.182Z,21.55
2022-12-17T20:43:57.358Z,16.92
2022-12-17T20:46:25.398Z,11.68
2022-12-17T20:48:52.418Z,11.68
2022-12-17T20:51:25.262Z,12.50
2022-12-17T20:53:54.328Z,12.43
2022-12-17T20:56:24.118Z,13.50
2022-12-17T20:58:55.981Z,12.95
2022-12-17T21:01:27.297Z,12.60
2022-12-17T21:04:07.817Z,13.77
2022-12-17T21:06:40.326Z,12.85
2022-12-17T21:09:07.734Z,11.75
2022-12-17T21:11:35.483Z,13.20
2022-12-17T21:14:11.079Z,12.60
2022-12-17T21:16:39.103Z,13.05
2022-12-17T21:19:08.074Z,12.88
2022-12-17T21:21:37.487Z,14.63
2022-12-17T21:24:05.682Z,13.05
2022-12-17T21:26:37.433Z,12.25
2022-12-17T21:29:05.950Z,10.38
2022-12-17T21:31:35.630Z,9.60
2022-12-17T21:34:04.929Z,11.88
2022-12-17T21:36:34.484Z,9.98
2022-12-17T21:39:08.912Z,10.13
2022-12-17T21:41:42.071Z,11.18
2022-12-17T21:44:13.555Z,10.43
2022-12-17T21:46:41.927Z,9.57
2022-12-17T21:49:11.584Z,9.00
2022-12-17T21:51:38.679Z,9.32
2022-12-17T21:54:08.986Z,10.35
2022-12-17T21:56:36.840Z,10.65
2022-12-17T21:59:04.136Z,10.18
2022-12-17T22:01:33.445Z,9.10
2022-12-17T22:04:03.097Z,9.02
2022-12-17T22:06:36.674Z,7.63
2022-12-17T22:09:18.470Z,8.00
2022-12-17T22:12:10.577Z,7.60
2022-12-17T22:14:37.353Z,7.55
2022-12-17T22:17:04.146Z,6.90
2022-12-17T22:19:30.820Z,7.50
2022-12-17T22:21:58.042Z,6.75
2022-12-17T22:24:25.687Z,6.15
2022-12-17T22:26:59.531Z,7.05
2022-12-17T22:29:46.237Z,6.50
2022-12-17T22:32:32.059Z,5.88
2022-12-17T22:36:13.955Z,6.50
2022-12-17T22:41:21.680Z,6.88
2022-12-17T22:44:09.893Z,7.13
2022-12-17T22:44:40.880Z,7.78
2022-12-17T22:46:17.192Z,7.80
2022-12-17T22:48:47.067Z,8.25
2022-12-17T22:51:25.710Z,8.20
2022-12-17T22:54:05.598Z,6.93
2022-12-17T22:57:06.140Z,8.05
2022-12-17T22:59:21.741Z,8.40
2022-12-17T23:01:48.445Z,9.07
2022-12-17T23:04:16.266Z,14.38
2022-12-17T23:06:45.483Z,10.15
2022-12-17T23:09:19.250Z,9.20
2022-12-17T23:11:48.209Z,9.15
2022-12-17T23:14:17.275Z,9.35
2022-12-17T23:16:44.400Z,10.07
2022-12-17T23:19:12.585Z,11.38
2022-12-17T23:21:39.340Z,11.07
2022-12-17T23:24:06.450Z,10.25
2022-12-17T23:26:35.876Z,10.73
2022-12-17T23:29:06.318Z,9.30
2022-12-17T23:31:37.243Z,8.90
2022-12-17T23:34:05.464Z,11.13
2022-12-17T23:36:32.570Z,12.00
2022-12-17T23:39:01.885Z,11.63
2022-12-17T23:41:30.396Z,14.00
2022-12-17T23:44:00.156Z,12.80
2022-12-17T23:46:28.924Z,11.32
2022-12-17T23:48:55.697Z,12.10
2022-12-17T23:51:23.754Z,11.02
2022-12-17T23:53:50.744Z,12.18
2022-12-17T23:56:18.731Z,11.77
2022-12-17T23:58:46.654Z,12.85
